createdAt,value
2019-01-31T00:01:02.908Z,995.34
2019-01-31T00:02:12.580Z,995.26
2019-01-31T00:03:22.502Z,995.32
2019-01-31T00:04:32.424Z,995.33
2019-01-31T00:05:41.852Z,995.34
2019-01-31T00:06:51.279Z,995.39
2019-01-31T00:08:00.956Z,995.36
2019-01-31T00:09:10.881Z,995.41
2019-01-31T00:10:20.052Z,995.37
2019-01-31T00:11:29.470Z,995.37
2019-01-31T00:12:39.137Z,995.36
2019-01-31T00:13:49.066Z,995.35
2019-01-31T00:14:58.486Z,995.36
2019-01-31T00:16:08.433Z,995.36
2019-01-31T00:17:18.112Z,995.4
2019-01-31T00:18:28.036Z,995.38
2019-01-31T00:19:37.450Z,995.37
2019-01-31T00:20:47.110Z,995.38
2019-01-31T00:21:56.278Z,995.39
2019-01-31T00:23:05.704Z,995.41
2019-01-31T00:24:14.870Z,995.4
2019-01-31T00:25:24.792Z,995.39
2019-01-31T00:26:34.214Z,995.41
2019-01-31T00:27:43.634Z,995.38
2019-01-31T00:28:53.300Z,995.41
2019-01-31T00:30:02.713Z,995.42
2019-01-31T00:31:12.638Z,995.44
2019-01-31T00:32:22.314Z,995.48
2019-01-31T00:33:31.484Z,995.51
2019-01-31T00:34:41.153Z,995.45
2019-01-31T00:35:51.067Z,995.5
2019-01-31T00:37:00.982Z,995.51
2019-01-31T00:38:10.907Z,995.51
2019-01-31T00:39:20.333Z,995.57
2019-01-31T00:40:29.749Z,995.55
2019-01-31T00:41:39.721Z,995.56
2019-01-31T00:42:48.638Z,995.53
2019-01-31T00:43:58.311Z,995.52
2019-01-31T00:45:07.976Z,995.55
2019-01-31T00:46:17.149Z,995.53
2019-01-31T00:47:27.071Z,995.57
2019-01-31T00:48:36.993Z,995.6
2019-01-31T00:49:46.414Z,995.57
2019-01-31T00:50:56.078Z,995.62
2019-01-31T00:52:05.503Z,995.61
2019-01-31T00:53:15.190Z,995.6
2019-01-31T00:54:24.612Z,995.61
2019-01-31T00:55:34.122Z,995.65
2019-01-31T00:56:43.792Z,995.63
2019-01-31T00:57:53.215Z,995.63
2019-01-31T00:59:02.381Z,995.64
2019-01-31T01:00:12.305Z,995.58
2019-01-31T01:01:21.988Z,995.63
2019-01-31T01:02:31.667Z,995.59
2019-01-31T01:03:41.619Z,995.61
2019-01-31T01:04:51.580Z,995.62
2019-01-31T01:06:01.247Z,995.61
2019-01-31T01:07:10.912Z,995.61
2019-01-31T01:08:20.574Z,995.67
2019-01-31T01:09:29.994Z,995.67
2019-01-31T01:10:39.905Z,995.64
2019-01-31T01:11:49.576Z,995.61
2019-01-31T01:12:59.501Z,995.6
2019-01-31T01:14:09.176Z,995.61
2019-01-31T01:15:18.846Z,995.6
2019-01-31T01:16:28.515Z,995.6
2019-01-31T01:17:38.451Z,995.67
2019-01-31T01:18:48.381Z,995.63
2019-01-31T01:19:58.311Z,995.67
2019-01-31T01:21:07.737Z,995.7
2019-01-31T01:22:17.406Z,995.66
2019-01-31T01:23:26.571Z,995.72
2019-01-31T01:24:36.494Z,995.75
2019-01-31T01:25:46.406Z,995.69
2019-01-31T01:26:56.328Z,995.7
2019-01-31T01:28:05.752Z,995.71
2019-01-31T01:29:15.172Z,995.72
2019-01-31T01:30:25.096Z,995.67
2019-01-31T01:31:34.510Z,995.7
2019-01-31T01:32:44.186Z,995.71
2019-01-31T01:33:54.104Z,995.71
2019-01-31T01:35:04.040Z,995.74
2019-01-31T01:36:13.954Z,995.73
2019-01-31T01:37:23.624Z,995.74
2019-01-31T01:38:33.073Z,995.76
2019-01-31T01:39:42.491Z,995.72
2019-01-31T01:40:52.411Z,995.71
2019-01-31T01:42:02.078Z,995.7
2019-01-31T01:43:11.747Z,995.73
2019-01-31T01:44:21.661Z,995.74
2019-01-31T01:45:31.439Z,995.76
2019-01-31T01:46:41.364Z,995.75
2019-01-31T01:47:51.032Z,995.73
2019-01-31T01:49:00.949Z,995.75
2019-01-31T01:50:10.616Z,995.75
2019-01-31T01:51:20.046Z,995.72
2019-01-31T01:52:29.572Z,995.79
2019-01-31T01:53:39.239Z,995.76
2019-01-31T01:54:48.658Z,995.78
2019-01-31T01:55:57.830Z,995.83
2019-01-31T01:57:07.538Z,995.83
2019-01-31T01:58:17.206Z,995.87
2019-01-31T01:59:26.634Z,995.87
2019-01-31T02:00:36.302Z,995.83
2019-01-31T02:01:46.235Z,995.82
2019-01-31T02:02:55.917Z,995.8
2019-01-31T02:04:05.335Z,995.87
2019-01-31T02:05:15.256Z,995.87
2019-01-31T02:06:24.427Z,995.87
2019-01-31T02:07:33.850Z,995.89
2019-01-31T02:08:43.638Z,995.88
2019-01-31T02:09:53.309Z,995.85
2019-01-31T02:11:03.148Z,995.81
2019-01-31T02:12:13.077Z,995.81
2019-01-31T02:13:22.761Z,995.87
2019-01-31T02:14:32.681Z,995.85
2019-01-31T02:15:42.355Z,995.84
2019-01-31T02:16:51.699Z,995.84
2019-01-31T02:18:01.381Z,995.86
2019-01-31T02:19:11.050Z,995.86
2019-01-31T02:20:20.464Z,995.93
2019-01-31T02:21:30.386Z,995.89
2019-01-31T02:22:40.317Z,995.86
2019-01-31T02:23:49.748Z,995.89
2019-01-31T02:24:59.160Z,995.91
2019-01-31T02:26:08.835Z,995.9
2019-01-31T02:27:18.505Z,995.88
2019-01-31T02:28:27.935Z,995.85
2019-01-31T02:29:37.601Z,995.87
2019-01-31T02:30:46.774Z,995.87
2019-01-31T02:31:56.441Z,995.86
2019-01-31T02:33:06.112Z,995.85
2019-01-31T02:34:15.544Z,995.86
2019-01-31T02:35:25.328Z,995.86
2019-01-31T02:36:35.262Z,995.85
2019-01-31T02:37:45.189Z,995.84
2019-01-31T02:38:54.641Z,995.91
2019-01-31T02:40:04.068Z,995.86
2019-01-31T02:41:13.493Z,995.91
2019-01-31T02:42:23.029Z,995.91
2019-01-31T02:43:32.721Z,995.93
2019-01-31T02:44:42.648Z,995.93
2019-01-31T02:45:52.340Z,995.95
2019-01-31T02:47:02.275Z,995.94
2019-01-31T02:48:12.199Z,995.91
2019-01-31T02:49:21.877Z,995.94
2019-01-31T02:50:31.801Z,995.94
2019-01-31T02:51:41.740Z,995.96
2019-01-31T02:52:51.421Z,996
2019-01-31T02:54:01.341Z,995.94
2019-01-31T02:55:11.269Z,995.93
2019-01-31T02:56:20.685Z,995.99
2019-01-31T02:57:33.614Z,996
2019-01-31T02:58:43.041Z,995.94
2019-01-31T02:59:52.975Z,996.03
2019-01-31T03:01:02.916Z,996
2019-01-31T03:02:12.362Z,996.02
2019-01-31T03:03:22.281Z,996.04
2019-01-31T03:04:31.959Z,996.03
2019-01-31T03:05:41.388Z,996
2019-01-31T03:06:51.332Z,995.99
2019-01-31T03:08:01.032Z,995.98
2019-01-31T03:09:10.714Z,995.96
2019-01-31T03:10:19.884Z,995.97
2019-01-31T03:11:29.567Z,995.99
2019-01-31T03:12:39.053Z,996.01
2019-01-31T03:13:48.482Z,995.97
2019-01-31T03:15:10.346Z,995.95
2019-01-31T03:16:19.793Z,995.94
2019-01-31T03:17:29.589Z,995.96
2019-01-31T03:18:39.505Z,995.98
2019-01-31T03:19:48.687Z,995.99
2019-01-31T03:20:58.127Z,995.98
2019-01-31T03:22:08.071Z,995.97
2019-01-31T03:23:17.496Z,995.98
2019-01-31T03:24:27.171Z,995.98
2019-01-31T03:25:37.092Z,995.96
2019-01-31T03:26:46.762Z,995.99
2019-01-31T03:27:56.441Z,995.99
2019-01-31T03:29:06.144Z,996.02
2019-01-31T03:30:16.102Z,995.97
2019-01-31T03:31:29.817Z,995.92
2019-01-31T03:32:39.757Z,996
2019-01-31T03:33:49.724Z,995.97
2019-01-31T03:34:59.147Z,995.94
2019-01-31T03:36:08.843Z,995.98
2019-01-31T03:37:18.273Z,996.03
2019-01-31T03:38:27.952Z,996.02
2019-01-31T03:39:37.653Z,995.97
2019-01-31T03:40:47.072Z,996
2019-01-31T03:41:56.492Z,996
2019-01-31T03:43:06.422Z,995.99
2019-01-31T03:44:16.093Z,995.98
2019-01-31T03:45:25.771Z,996.01
2019-01-31T03:46:34.942Z,995.98
2019-01-31T03:47:44.646Z,996
2019-01-31T03:48:54.589Z,995.94
2019-01-31T03:50:06.749Z,995.99
2019-01-31T03:51:16.668Z,995.96
2019-01-31T03:52:26.593Z,995.99
2019-01-31T03:53:36.057Z,995.95
2019-01-31T03:54:45.738Z,995.93
2019-01-31T03:55:54.915Z,995.91
2019-01-31T03:57:04.846Z,995.95
2019-01-31T03:58:14.529Z,995.97
2019-01-31T03:59:24.465Z,995.95
2019-01-31T04:00:34.194Z,995.97
2019-01-31T04:01:44.144Z,996.01
2019-01-31T04:02:54.199Z,996
2019-01-31T04:04:03.873Z,995.94
2019-01-31T04:05:13.825Z,995.96
2019-01-31T04:06:23.745Z,995.94
2019-01-31T04:07:33.440Z,995.99
2019-01-31T04:08:42.874Z,996
2019-01-31T04:09:52.932Z,996.01
2019-01-31T04:11:02.425Z,996.02
2019-01-31T04:12:11.357Z,995.99
2019-01-31T04:13:21.069Z,996.01
2019-01-31T04:14:30.736Z,995.99
2019-01-31T04:15:40.412Z,995.97
2019-01-31T04:16:50.342Z,995.94
2019-01-31T04:18:00.018Z,995.97
2019-01-31T04:19:09.991Z,995.98
2019-01-31T04:20:19.713Z,995.95
2019-01-31T04:21:29.413Z,995.96
2019-01-31T04:22:39.336Z,995.95
2019-01-31T04:23:48.761Z,996
2019-01-31T04:24:58.439Z,996.01
2019-01-31T04:26:08.381Z,995.99
2019-01-31T04:27:18.058Z,995.99
2019-01-31T04:28:30.633Z,996.03
2019-01-31T04:29:40.201Z,996.03
2019-01-31T04:30:50.004Z,996.04
2019-01-31T04:31:59.695Z,996.05
2019-01-31T04:33:09.122Z,996.04
2019-01-31T04:34:18.563Z,996.05
2019-01-31T04:35:28.241Z,996.06
2019-01-31T04:36:38.302Z,996.04
2019-01-31T04:37:47.978Z,996.08
2019-01-31T04:38:57.664Z,996.07
2019-01-31T04:40:07.447Z,996
2019-01-31T04:41:17.115Z,996.02
2019-01-31T04:42:26.790Z,996.02
2019-01-31T04:43:36.463Z,996.06
2019-01-31T04:44:46.158Z,996.05
2019-01-31T04:45:55.840Z,996.06
2019-01-31T04:47:05.829Z,996.06
2019-01-31T04:48:15.523Z,996.06
2019-01-31T04:49:25.201Z,995.97
2019-01-31T04:50:34.874Z,995.99
2019-01-31T04:51:44.545Z,995.97
2019-01-31T04:52:53.971Z,996.02
2019-01-31T04:54:03.642Z,996.04
2019-01-31T04:55:13.325Z,996.05
2019-01-31T04:56:23.332Z,996.08
2019-01-31T04:57:32.771Z,996.08
2019-01-31T04:58:42.446Z,996.11
2019-01-31T04:59:52.136Z,996.09
2019-01-31T05:01:02.072Z,996.08
2019-01-31T05:02:11.757Z,996.14
2019-01-31T05:03:21.435Z,996.16
2019-01-31T05:04:30.355Z,996.18
2019-01-31T05:05:40.039Z,996.19
2019-01-31T05:06:49.722Z,996.2
2019-01-31T05:07:59.406Z,996.17
2019-01-31T05:09:09.377Z,996.15
2019-01-31T05:10:18.801Z,996.15
2019-01-31T05:11:28.471Z,996.15
2019-01-31T05:12:38.276Z,996.15
2019-01-31T05:13:48.204Z,996.12
2019-01-31T05:14:57.628Z,996.17
2019-01-31T05:16:07.310Z,996.15
2019-01-31T05:17:17.228Z,996.14
2019-01-31T05:18:26.902Z,996.18
2019-01-31T05:19:36.960Z,996.17
2019-01-31T05:20:46.631Z,996.14
2019-01-31T05:21:56.463Z,996.19
2019-01-31T05:23:06.157Z,996.14
2019-01-31T05:24:15.834Z,996.2
2019-01-31T05:25:25.532Z,996.19
2019-01-31T05:26:35.230Z,996.19
2019-01-31T05:27:44.650Z,996.23
2019-01-31T05:28:54.578Z,996.24
2019-01-31T05:30:04.504Z,996.2
2019-01-31T05:31:14.437Z,996.22
2019-01-31T05:32:24.134Z,996.22
2019-01-31T05:33:34.077Z,996.23
2019-01-31T05:34:43.902Z,996.27
2019-01-31T05:35:53.568Z,996.28
2019-01-31T05:37:03.487Z,996.22
2019-01-31T05:38:13.006Z,996.22
2019-01-31T05:39:25.129Z,996.29
2019-01-31T05:40:35.052Z,996.28
2019-01-31T05:41:56.095Z,996.27
2019-01-31T05:43:05.699Z,996.33
2019-01-31T05:44:15.123Z,996.33
2019-01-31T05:45:24.801Z,996.32
2019-01-31T05:46:34.239Z,996.36
2019-01-31T05:47:44.158Z,996.35
2019-01-31T05:48:53.595Z,996.37
2019-01-31T05:50:03.512Z,996.38
2019-01-31T05:51:13.442Z,996.33
2019-01-31T05:52:23.113Z,996.39
2019-01-31T05:53:33.047Z,996.43
2019-01-31T05:54:42.981Z,996.4
2019-01-31T05:55:52.409Z,996.48
2019-01-31T05:57:02.437Z,996.42
2019-01-31T05:58:12.123Z,996.44
2019-01-31T05:59:21.543Z,996.44
2019-01-31T06:00:31.466Z,996.44
2019-01-31T06:01:41.139Z,996.42
2019-01-31T06:02:51.275Z,996.49
2019-01-31T06:04:00.728Z,996.48
2019-01-31T06:05:10.664Z,996.48
2019-01-31T06:06:20.111Z,996.55
2019-01-31T06:07:29.546Z,996.51
2019-01-31T06:08:38.973Z,996.51
2019-01-31T06:09:48.398Z,996.56
2019-01-31T06:11:07.057Z,996.56
2019-01-31T06:12:17.581Z,996.58
2019-01-31T06:13:27.030Z,996.58
2019-01-31T06:14:36.330Z,996.6
2019-01-31T06:15:46.000Z,996.6
2019-01-31T06:16:55.942Z,996.6
2019-01-31T06:18:05.870Z,996.61
2019-01-31T06:19:15.790Z,996.59
2019-01-31T06:20:25.634Z,996.61
2019-01-31T06:21:35.365Z,996.63
2019-01-31T06:22:45.292Z,996.63
2019-01-31T06:23:55.076Z,996.6
2019-01-31T06:25:04.322Z,996.6
2019-01-31T06:26:14.016Z,996.68
2019-01-31T06:27:23.447Z,996.63
2019-01-31T06:28:33.241Z,996.57
2019-01-31T06:29:42.912Z,996.59
2019-01-31T06:30:52.458Z,996.63
2019-01-31T06:32:02.142Z,996.63
2019-01-31T06:33:12.075Z,996.65
2019-01-31T06:34:21.754Z,996.63
2019-01-31T06:35:31.708Z,996.66
2019-01-31T06:36:41.391Z,996.63
2019-01-31T06:37:51.061Z,996.66
2019-01-31T06:39:00.485Z,996.69
2019-01-31T06:40:09.909Z,996.69
2019-01-31T06:41:19.579Z,996.67
2019-01-31T06:42:29.244Z,996.68
2019-01-31T06:43:38.668Z,996.71
2019-01-31T06:44:48.372Z,996.67
2019-01-31T06:45:58.293Z,996.69
2019-01-31T06:47:07.718Z,996.69
2019-01-31T06:48:17.401Z,996.7
2019-01-31T06:49:27.079Z,996.72
2019-01-31T06:50:36.994Z,996.8
2019-01-31T06:51:46.918Z,996.77
2019-01-31T06:52:58.203Z,996.79
2019-01-31T06:54:07.973Z,996.79
2019-01-31T06:55:17.405Z,996.79
2019-01-31T06:56:26.823Z,996.76
2019-01-31T06:57:36.497Z,996.79
2019-01-31T06:58:46.166Z,996.78
2019-01-31T06:59:55.869Z,996.82
2019-01-31T07:01:05.789Z,996.83
2019-01-31T07:02:15.214Z,996.81
2019-01-31T07:03:24.901Z,996.79
2019-01-31T07:04:34.325Z,996.84
2019-01-31T07:05:43.997Z,996.9
2019-01-31T07:06:53.668Z,996.92
2019-01-31T07:08:04.768Z,996.92
2019-01-31T07:09:14.546Z,996.95
2019-01-31T07:10:24.472Z,996.97
2019-01-31T07:11:34.872Z,997.01
2019-01-31T07:12:44.909Z,997.03
2019-01-31T07:13:54.340Z,997.03
2019-01-31T07:15:04.013Z,997.05
2019-01-31T07:16:13.692Z,997.07
2019-01-31T07:17:23.604Z,997.08
2019-01-31T07:18:33.522Z,997.16
2019-01-31T07:19:42.939Z,997.16
2019-01-31T07:20:52.609Z,997.13
2019-01-31T07:22:02.303Z,997.19
2019-01-31T07:23:11.975Z,997.2
2019-01-31T07:24:21.949Z,997.18
2019-01-31T07:25:31.625Z,997.21
2019-01-31T07:26:41.631Z,997.19
2019-01-31T07:27:50.976Z,997.26
2019-01-31T07:29:00.769Z,997.19
2019-01-31T07:30:10.445Z,997.24
2019-01-31T07:31:19.865Z,997.28
2019-01-31T07:32:29.534Z,997.3
2019-01-31T07:33:39.206Z,997.35
2019-01-31T07:34:48.930Z,997.33
2019-01-31T07:35:58.850Z,997.36
2019-01-31T07:37:08.553Z,997.37
2019-01-31T07:38:18.480Z,997.43
2019-01-31T07:39:28.530Z,997.44
2019-01-31T07:40:38.203Z,997.42
2019-01-31T07:41:47.877Z,997.42
2019-01-31T07:42:57.797Z,997.47
2019-01-31T07:44:07.468Z,997.48
2019-01-31T07:45:17.585Z,997.51
2019-01-31T07:46:27.514Z,997.49
2019-01-31T07:47:37.187Z,997.53
2019-01-31T07:48:46.364Z,997.56
2019-01-31T07:49:55.778Z,997.54
2019-01-31T07:51:04.944Z,997.58
2019-01-31T07:52:14.367Z,997.54
2019-01-31T07:53:23.778Z,997.58
2019-01-31T07:54:33.450Z,997.59
2019-01-31T07:55:43.129Z,997.62
2019-01-31T07:56:52.550Z,997.61
2019-01-31T07:58:02.478Z,997.64
2019-01-31T07:59:12.398Z,997.68
2019-01-31T08:00:22.283Z,997.69
2019-01-31T08:01:31.959Z,997.71
2019-01-31T08:02:43.798Z,997.72
2019-01-31T08:04:02.113Z,997.73
2019-01-31T08:05:12.584Z,997.66
2019-01-31T08:06:22.249Z,997.69
2019-01-31T08:07:31.925Z,997.72
2019-01-31T08:08:41.600Z,997.73
2019-01-31T08:09:51.267Z,997.8
2019-01-31T08:11:03.676Z,997.8
2019-01-31T08:12:13.611Z,997.82
2019-01-31T08:13:23.046Z,997.84
2019-01-31T08:14:32.730Z,997.85
2019-01-31T08:15:42.260Z,997.89
2019-01-31T08:16:52.179Z,997.86
2019-01-31T08:18:02.117Z,997.84
2019-01-31T08:19:13.587Z,997.88
2019-01-31T08:20:23.260Z,997.85
2019-01-31T08:21:32.940Z,997.88
2019-01-31T08:22:44.053Z,997.92
2019-01-31T08:23:53.974Z,998
2019-01-31T08:25:03.661Z,997.97
2019-01-31T08:26:13.584Z,998.01
2019-01-31T08:27:23.506Z,998.04
2019-01-31T08:28:32.939Z,998.07
2019-01-31T08:29:42.613Z,998.12
2019-01-31T08:30:52.034Z,998.06
2019-01-31T08:32:01.708Z,998.13
2019-01-31T08:33:11.383Z,998.06
2019-01-31T08:34:21.060Z,998.1
2019-01-31T08:35:30.727Z,998.11
2019-01-31T08:36:40.510Z,998.07
2019-01-31T08:37:49.968Z,998.05
2019-01-31T08:38:59.893Z,998.14
2019-01-31T08:40:09.563Z,998.16
2019-01-31T08:41:19.499Z,998.16
2019-01-31T08:42:29.430Z,998.15
2019-01-31T08:43:39.101Z,998.2
2019-01-31T08:44:51.589Z,998.19
2019-01-31T08:46:01.267Z,998.19
2019-01-31T08:47:10.450Z,998.24
2019-01-31T08:48:20.249Z,998.2
2019-01-31T08:49:29.441Z,998.25
2019-01-31T08:50:39.503Z,998.24
2019-01-31T08:51:49.173Z,998.28
2019-01-31T08:52:58.602Z,998.31
2019-01-31T08:54:08.025Z,998.27
2019-01-31T08:55:17.445Z,998.27
2019-01-31T08:56:27.132Z,998.25
2019-01-31T08:57:36.814Z,998.24
2019-01-31T08:58:47.966Z,998.29
2019-01-31T08:59:57.392Z,998.31
2019-01-31T09:01:07.078Z,998.33
2019-01-31T09:02:17.011Z,998.31
2019-01-31T09:03:26.945Z,998.36
2019-01-31T09:04:36.371Z,998.33
2019-01-31T09:05:46.292Z,998.33
2019-01-31T09:06:56.212Z,998.36
2019-01-31T09:08:05.394Z,998.38
2019-01-31T09:09:14.817Z,998.37
2019-01-31T09:10:23.999Z,998.4
2019-01-31T09:11:33.423Z,998.39
2019-01-31T09:12:43.124Z,998.41
2019-01-31T09:13:52.543Z,998.42
2019-01-31T09:15:02.485Z,998.41
2019-01-31T09:16:12.174Z,998.44
2019-01-31T09:17:21.607Z,998.45
2019-01-31T09:18:30.782Z,998.47
2019-01-31T09:19:40.713Z,998.47
2019-01-31T09:20:50.396Z,998.5
2019-01-31T09:22:00.450Z,998.47
2019-01-31T09:23:09.667Z,998.49
2019-01-31T09:24:19.380Z,998.46
2019-01-31T09:25:29.056Z,998.48
2019-01-31T09:26:38.734Z,998.47
2019-01-31T09:27:48.186Z,998.46
2019-01-31T09:28:57.610Z,998.41
2019-01-31T09:30:07.282Z,998.44
2019-01-31T09:31:19.966Z,998.43
2019-01-31T09:32:29.644Z,998.44
2019-01-31T09:33:39.565Z,998.46
2019-01-31T09:34:49.002Z,998.48
2019-01-31T09:35:58.950Z,998.5
2019-01-31T09:37:08.875Z,998.54
2019-01-31T09:38:18.049Z,998.53
2019-01-31T09:39:27.979Z,998.51
2019-01-31T09:40:37.407Z,998.49
2019-01-31T09:41:47.081Z,998.51
2019-01-31T09:42:56.507Z,998.55
2019-01-31T09:44:05.931Z,998.53
2019-01-31T09:45:15.603Z,998.62
2019-01-31T09:46:25.024Z,998.57
2019-01-31T09:47:34.700Z,998.55
2019-01-31T09:48:44.761Z,998.55
2019-01-31T09:49:53.939Z,998.59
2019-01-31T09:51:03.618Z,998.59
2019-01-31T09:52:13.293Z,998.65
2019-01-31T09:53:23.222Z,998.58
2019-01-31T09:54:32.943Z,998.62
2019-01-31T09:55:42.371Z,998.61
2019-01-31T09:56:52.065Z,998.59
2019-01-31T09:58:01.740Z,998.62
2019-01-31T09:59:11.417Z,998.63
2019-01-31T10:00:27.334Z,998.7
2019-01-31T10:01:37.547Z,998.66
2019-01-31T10:02:46.970Z,998.66
2019-01-31T10:03:55.678Z,998.68
2019-01-31T10:05:05.352Z,998.68
2019-01-31T10:06:15.030Z,998.71
2019-01-31T10:07:24.711Z,998.69
2019-01-31T10:08:34.137Z,998.67
2019-01-31T10:09:43.810Z,998.69
2019-01-31T10:10:53.744Z,998.71
2019-01-31T10:12:03.340Z,998.68
2019-01-31T10:13:13.129Z,998.69
2019-01-31T10:14:23.417Z,998.74
2019-01-31T10:15:33.425Z,998.75
2019-01-31T10:16:42.996Z,998.72
2019-01-31T10:17:54.311Z,998.76
2019-01-31T10:19:04.190Z,998.74
2019-01-31T10:20:14.627Z,998.76
2019-01-31T10:21:26.188Z,998.75
2019-01-31T10:22:36.570Z,998.77
2019-01-31T10:23:46.592Z,998.84
2019-01-31T10:24:56.854Z,998.81
2019-01-31T10:26:06.951Z,998.83
2019-01-31T10:27:16.382Z,998.85
2019-01-31T10:28:26.059Z,998.79
2019-01-31T10:29:35.985Z,998.82
2019-01-31T10:30:45.670Z,998.76
2019-01-31T10:31:55.103Z,998.75
2019-01-31T10:33:04.784Z,998.81
2019-01-31T10:34:13.959Z,998.77
2019-01-31T10:35:25.285Z,998.79
2019-01-31T10:36:34.972Z,998.8
2019-01-31T10:37:44.393Z,998.74
2019-01-31T10:38:54.694Z,998.76
2019-01-31T10:40:04.234Z,998.81
2019-01-31T10:41:13.908Z,998.87
2019-01-31T10:42:23.417Z,998.79
2019-01-31T10:43:32.602Z,998.81
2019-01-31T10:44:42.276Z,998.77
2019-01-31T10:45:52.288Z,998.79
2019-01-31T10:47:02.225Z,998.76
2019-01-31T10:48:11.903Z,998.79
2019-01-31T10:49:21.077Z,998.78
2019-01-31T10:50:30.502Z,998.82
2019-01-31T10:51:39.924Z,998.84
2019-01-31T10:52:49.598Z,998.84
2019-01-31T10:53:59.053Z,998.87
2019-01-31T10:55:08.474Z,998.84
2019-01-31T10:56:18.152Z,998.84
2019-01-31T10:57:27.822Z,998.91
2019-01-31T10:58:37.748Z,998.85
2019-01-31T10:59:47.175Z,998.82
2019-01-31T11:00:56.599Z,998.76
2019-01-31T11:02:06.529Z,998.84
2019-01-31T11:03:16.451Z,998.94
2019-01-31T11:04:26.138Z,998.87
2019-01-31T11:05:35.569Z,998.88
2019-01-31T11:06:45.496Z,998.83
2019-01-31T11:07:55.164Z,998.89
2019-01-31T11:09:07.289Z,998.91
2019-01-31T11:10:16.720Z,998.88
2019-01-31T11:11:25.893Z,998.88
2019-01-31T11:12:35.145Z,998.88
2019-01-31T11:13:44.318Z,998.85
2019-01-31T11:14:53.746Z,998.85
2019-01-31T11:16:03.426Z,998.87
2019-01-31T11:17:13.104Z,998.87
2019-01-31T11:18:23.030Z,998.91
2019-01-31T11:19:32.752Z,998.91
2019-01-31T11:20:42.674Z,998.91
2019-01-31T11:21:52.346Z,998.91
2019-01-31T11:23:02.276Z,998.89
2019-01-31T11:24:11.947Z,998.89
2019-01-31T11:25:21.617Z,998.91
2019-01-31T11:26:31.287Z,998.89
2019-01-31T11:27:40.748Z,998.91
2019-01-31T11:28:50.441Z,998.84
2019-01-31T11:30:00.328Z,998.9
2019-01-31T11:31:10.405Z,998.87
2019-01-31T11:32:20.080Z,998.88
2019-01-31T11:33:29.258Z,998.85
2019-01-31T11:34:39.186Z,998.84
2019-01-31T11:35:48.618Z,998.88
2019-01-31T11:36:58.607Z,998.85
2019-01-31T11:38:08.297Z,998.89
2019-01-31T11:39:18.094Z,998.89
2019-01-31T11:40:27.772Z,998.88
2019-01-31T11:41:37.730Z,998.9
2019-01-31T11:42:47.648Z,998.91
2019-01-31T11:43:57.318Z,998.89
2019-01-31T11:45:07.336Z,998.91
2019-01-31T11:46:17.014Z,998.9
2019-01-31T11:47:26.440Z,998.91
2019-01-31T11:48:36.120Z,998.93
2019-01-31T11:49:45.793Z,998.94
2019-01-31T11:50:57.411Z,998.92
2019-01-31T11:52:07.382Z,998.88
2019-01-31T11:53:17.305Z,998.91
2019-01-31T11:54:26.488Z,998.93
2019-01-31T11:55:36.412Z,998.99
2019-01-31T11:56:46.099Z,998.89
2019-01-31T11:58:05.847Z,998.9
2019-01-31T11:59:15.524Z,998.92
2019-01-31T12:00:25.476Z,998.88
2019-01-31T12:01:35.152Z,998.84
2019-01-31T12:02:54.644Z,998.87
2019-01-31T12:04:05.038Z,998.83
2019-01-31T12:05:14.707Z,998.89
2019-01-31T12:06:24.632Z,998.85
2019-01-31T12:07:36.508Z,998.79
2019-01-31T12:08:45.823Z,998.84
2019-01-31T12:09:55.608Z,998.85
2019-01-31T12:11:05.595Z,998.83
2019-01-31T12:12:15.267Z,998.83
2019-01-31T12:13:24.687Z,998.83
2019-01-31T12:14:33.874Z,998.84
2019-01-31T12:15:43.554Z,998.77
2019-01-31T12:16:53.231Z,998.8
2019-01-31T12:18:02.902Z,998.78
2019-01-31T12:19:12.589Z,998.74
2019-01-31T12:20:22.379Z,998.75
2019-01-31T12:21:31.813Z,998.77
2019-01-31T12:22:41.001Z,998.79
2019-01-31T12:23:50.678Z,998.8
2019-01-31T12:25:00.384Z,998.78
2019-01-31T12:26:10.307Z,998.75
2019-01-31T12:27:21.686Z,998.78
2019-01-31T12:28:31.112Z,998.69
2019-01-31T12:29:41.036Z,998.72
2019-01-31T12:30:50.990Z,998.74
2019-01-31T12:32:00.528Z,998.67
2019-01-31T12:33:09.954Z,998.73
2019-01-31T12:34:19.376Z,998.67
2019-01-31T12:35:29.059Z,998.72
2019-01-31T12:36:38.759Z,998.74
2019-01-31T12:37:48.517Z,998.72
2019-01-31T12:38:58.206Z,998.69
2019-01-31T12:40:07.896Z,998.64
2019-01-31T12:41:17.570Z,998.62
2019-01-31T12:42:27.502Z,998.62
2019-01-31T12:43:37.180Z,998.61
2019-01-31T12:44:46.109Z,998.59
2019-01-31T12:45:55.536Z,998.6
2019-01-31T12:47:05.458Z,998.59
2019-01-31T12:48:14.639Z,998.58
2019-01-31T12:49:24.571Z,998.58
2019-01-31T12:50:34.253Z,998.53
2019-01-31T12:51:43.926Z,998.56
2019-01-31T12:52:53.349Z,998.52
2019-01-31T12:54:02.787Z,998.57
2019-01-31T12:55:11.958Z,998.56
2019-01-31T12:56:21.384Z,998.54
2019-01-31T12:57:30.818Z,998.55
2019-01-31T12:58:40.492Z,998.49
2019-01-31T12:59:50.171Z,998.5
2019-01-31T13:00:59.840Z,998.5
2019-01-31T13:02:09.769Z,998.56
2019-01-31T13:03:19.199Z,998.57
2019-01-31T13:04:28.873Z,998.57
2019-01-31T13:05:38.379Z,998.57
2019-01-31T13:06:48.160Z,998.53
2019-01-31T13:07:57.835Z,998.55
2019-01-31T13:09:07.013Z,998.57
2019-01-31T13:10:16.450Z,998.56
2019-01-31T13:11:26.144Z,998.57
2019-01-31T13:12:35.591Z,998.5
2019-01-31T13:13:55.879Z,998.48
2019-01-31T13:15:05.304Z,998.55
2019-01-31T13:16:14.978Z,998.5
2019-01-31T13:17:24.901Z,998.49
2019-01-31T13:18:34.328Z,998.48
2019-01-31T13:19:44.004Z,998.44
2019-01-31T13:20:53.685Z,998.41
2019-01-31T13:22:03.377Z,998.37
2019-01-31T13:23:12.801Z,998.35
2019-01-31T13:24:22.483Z,998.35
2019-01-31T13:25:32.413Z,998.35
2019-01-31T13:26:42.355Z,998.36
2019-01-31T13:27:52.032Z,998.36
2019-01-31T13:29:01.711Z,998.37
2019-01-31T13:30:11.645Z,998.4
2019-01-31T13:31:21.574Z,998.36
2019-01-31T13:32:31.389Z,998.34
2019-01-31T13:33:41.068Z,998.38
2019-01-31T13:34:53.961Z,998.33
2019-01-31T13:36:03.657Z,998.36
2019-01-31T13:37:13.586Z,998.33
2019-01-31T13:38:23.524Z,998.38
2019-01-31T13:39:33.463Z,998.37
2019-01-31T13:40:43.140Z,998.36
2019-01-31T13:41:53.155Z,998.36
2019-01-31T13:43:02.831Z,998.34
2019-01-31T13:44:12.262Z,998.32
2019-01-31T13:45:21.443Z,998.32
2019-01-31T13:46:30.893Z,998.33
2019-01-31T13:47:40.563Z,998.28
2019-01-31T13:48:50.489Z,998.28
2019-01-31T13:50:00.195Z,998.33
2019-01-31T13:51:09.901Z,998.31
2019-01-31T13:52:19.584Z,998.33
2019-01-31T13:53:29.511Z,998.3
2019-01-31T13:54:39.443Z,998.33
2019-01-31T13:55:49.117Z,998.33
2019-01-31T13:56:58.799Z,998.32
2019-01-31T13:58:10.157Z,998.33
2019-01-31T13:59:19.556Z,998.32
2019-01-31T14:00:28.751Z,998.29
2019-01-31T14:01:38.693Z,998.3
2019-01-31T14:02:48.625Z,998.27
2019-01-31T14:03:58.314Z,998.24
2019-01-31T14:05:07.507Z,998.27
2019-01-31T14:06:16.944Z,998.26
2019-01-31T14:07:27.601Z,998.27
2019-01-31T14:08:37.701Z,998.29
2019-01-31T14:09:47.745Z,998.24
2019-01-31T14:10:57.422Z,998.26
2019-01-31T14:12:07.354Z,998.26
2019-01-31T14:13:16.782Z,998.26
2019-01-31T14:14:25.966Z,998.24
2019-01-31T14:15:35.915Z,998.28
2019-01-31T14:16:47.414Z,998.25
2019-01-31T14:17:57.713Z,998.25
2019-01-31T14:19:07.142Z,998.26
2019-01-31T14:20:17.075Z,998.19
2019-01-31T14:21:26.272Z,998.23
2019-01-31T14:22:42.711Z,998.22
2019-01-31T14:23:52.774Z,998.2
2019-01-31T14:25:02.515Z,998.19
2019-01-31T14:26:11.999Z,998.18
2019-01-31T14:27:21.433Z,998.18
2019-01-31T14:28:31.116Z,998.24
2019-01-31T14:29:40.294Z,998.22
2019-01-31T14:30:50.226Z,998.21
2019-01-31T14:32:00.163Z,998.21
2019-01-31T14:33:09.837Z,998.21
2019-01-31T14:34:19.767Z,998.21
2019-01-31T14:35:29.442Z,998.18